Time,TemperatureF,DewpointF,PressureIn,WindDirection,WindDirectionDegrees,WindSpeedMPH,WindSpeedGustMPH,Humidity,HourlyPrecipIn,Conditions,Clouds,dailyrainin,SolarRadiationWatts/m^2,SoftwareType,DateUTC
2013-01-10 00:32:00,47.0,47.0,-100.00,SSW,209,5.0,9.0,100,-99.99,,,0.83,1.000000,,2013-01-10 06:32:00,
2013-01-10 00:42:00,47.0,47.0,-100.00,SSW,209,5.0,9.0,100,-99.99,,,0.83,1.000000,,2013-01-10 06:42:00,
2013-01-10 00:52:00,47.0,47.0,-100.00,SSW,209,5.0,9.0,100,-99.99,,,0.83,1.000000,,2013-01-10 06:52:00,
2013-01-10 01:02:00,47.0,47.0,-100.00,SSW,209,5.0,9.0,100,-99.99,,,0.83,1.000000,,2013-01-10 07:02:00,
2013-01-10 02:33:00,46.0,46.0,-100.00,WSW,251,6.0,11.0,99,-99.99,,,0.76,1.000000,,2013-01-10 08:33:00,
2013-01-10 02:42:00,46.0,46.0,-100.00,WSW,251,6.0,11.0,99,-99.99,,,0.76,1.000000,,2013-01-10 08:42:00,
2013-01-10 02:53:00,46.0,46.0,-100.00,WSW,251,6.0,11.0,99,-99.99,,,0.76,1.000000,,2013-01-10 08:53:00,
2013-01-10 03:02:00,46.0,46.0,-100.00,WSW,251,6.0,11.0,99,-99.99,,,0.76,1.000000,,2013-01-10 09:02:00,
2013-01-10 03:32:00,46.0,45.0,-100.00,West,262,7.0,11.0,96,0.00,,,0.72,1.000000,,2013-01-10 09:32:00,
2013-01-10 03:43:00,46.0,45.0,-100.00,West,262,7.0,11.0,96,0.00,,,0.72,1.000000,,2013-01-10 09:43:00,
2013-01-10 03:52:00,46.0,45.0,-100.00,West,262,7.0,11.0,96,0.00,,,0.72,1.000000,,2013-01-10 09:52:00,
2013-01-10 04:03:00,46.0,45.0,-100.00,West,262,7.0,11.0,96,0.00,,,0.72,1.000000,,2013-01-10 10:03:00,
2013-01-10 04:33:00,45.0,44.0,-100.00,SSW,194,5.0,11.0,97,0.01,,,0.61,1.000000,,2013-01-10 10:33:00,
2013-01-10 04:42:00,45.0,44.0,-100.00,SSW,194,5.0,11.0,97,0.01,,,0.61,1.000000,,2013-01-10 10:42:00,
2013-01-10 04:52:00,45.0,44.0,-100.00,SSW,194,5.0,11.0,97,0.01,,,0.61,1.000000,,2013-01-10 10:52:00,
2013-01-10 05:02:00,45.0,44.0,-100.00,SSW,194,5.0,11.0,97,0.01,,,0.61,1.000000,,2013-01-10 11:02:00,
2013-01-10 05:33:00,45.0,44.0,-100.00,SW,218,5.0,8.0,98,0.02,,,0.60,1.000000,,2013-01-10 11:33:00,
2013-01-10 05:43:00,45.0,44.0,-100.00,SW,218,5.0,8.0,98,0.02,,,0.60,1.000000,,2013-01-10 11:43:00,
2013-01-10 05:53:00,45.0,44.0,-100.00,SW,218,5.0,8.0,98,0.02,,,0.60,1.000000,,2013-01-10 11:53:00,
2013-01-10 06:03:00,45.0,44.0,-100.00,SW,218,5.0,8.0,98,0.02,,,0.60,1.000000,,2013-01-10 12:03:00,
2013-01-10 08:33:00,44.0,41.0,-100.00,SW,226,11.0,21.0,90,-99.99,,,0.55,3.000000,,2013-01-10 14:33:00,
2013-01-10 08:43:00,44.0,41.0,-100.00,SW,226,11.0,21.0,90,-99.99,,,0.55,3.000000,,2013-01-10 14:43:00,
2013-01-10 08:53:00,44.0,41.0,-100.00,SW,226,11.0,21.0,90,-99.99,,,0.55,3.000000,,2013-01-10 14:53:00,
2013-01-10 09:03:00,44.0,41.0,-100.00,SW,226,11.0,21.0,90,-99.99,,,0.55,3.000000,,2013-01-10 15:03:00,
2013-01-10 09:33:00,45.0,42.0,-100.00,WSW,238,14.0,21.0,89,0.00,,,0.48,27.000000,,2013-01-10 15:33:00,
2013-01-10 09:43:00,45.0,42.0,-100.00,WSW,238,14.0,21.0,89,0.00,,,0.48,27.000000,,2013-01-10 15:43:00,
2013-01-10 09:53:00,45.0,42.0,-100.00,WSW,238,14.0,21.0,89,0.00,,,0.48,27.000000,,2013-01-10 15:53:00,
2013-01-10 10:02:00,45.0,42.0,-100.00,WSW,238,14.0,21.0,89,0.00,,,0.48,27.000000,,2013-01-10 16:02:00,
2013-01-10 10:33:00,48.0,45.0,-100.00,WSW,238,18.0,23.0,88,0.00,,,0.45,125.000000,,2013-01-10 16:33:00,
2013-01-10 10:43:00,48.0,45.0,-100.00,WSW,238,18.0,23.0,88,0.00,,,0.45,125.000000,,2013-01-10 16:43:00,
2013-01-10 10:53:00,48.0,45.0,-100.00,WSW,238,18.0,23.0,88,0.00,,,0.45,125.000000,,2013-01-10 16:53:00,
2013-01-10 11:03:00,48.0,45.0,-100.00,WSW,238,18.0,23.0,88,0.00,,,0.45,125.000000,,2013-01-10 17:03:00,
2013-01-10 11:33:00,50.0,44.0,-100.00,WSW,247,16.0,26.0,81,0.00,,,0.40,203.000000,,2013-01-10 17:33:00,
2013-01-10 11:43:00,50.0,44.0,-100.00,WSW,247,16.0,26.0,81,0.00,,,0.40,203.000000,,2013-01-10 17:43:00,
2013-01-10 11:53:00,50.0,44.0,-100.00,WSW,247,16.0,26.0,81,0.00,,,0.40,203.000000,,2013-01-10 17:53:00,
2013-01-10 12:03:00,50.0,44.0,-100.00,WSW,247,16.0,26.0,81,0.00,,,0.40,203.000000,,2013-01-10 18:03:00,
2013-01-10 12:33:00,51.0,44.0,-100.00,WSW,257,18.0,25.0,77,0.00,,,0.39,237.000000,,2013-01-10 18:33:00,
2013-01-10 12:43:00,51.0,44.0,-100.00,WSW,257,18.0,25.0,77,0.00,,,0.39,237.000000,,2013-01-10 18:43:00,
2013-01-10 12:53:00,51.0,44.0,-100.00,WSW,257,18.0,25.0,77,0.00,,,0.39,237.000000,,2013-01-10 18:53:00,
2013-01-10 13:03:00,51.0,44.0,-100.00,WSW,257,18.0,25.0,77,0.00,,,0.39,237.000000,,2013-01-10 19:03:00,
2013-01-10 13:33:00,55.0,46.0,-100.00,WSW,256,15.0,24.0,72,0.00,,,-99.99,473.000000,,2013-01-10 19:33:00,
2013-01-10 13:43:00,55.0,46.0,-100.00,WSW,256,15.0,24.0,72,0.00,,,-99.99,473.000000,,2013-01-10 19:43:00,
2013-01-10 13:53:00,55.0,46.0,-100.00,WSW,256,15.0,24.0,72,0.00,,,-99.99,473.000000,,2013-01-10 19:53:00,
2013-01-10 14:03:00,55.0,46.0,-100.00,WSW,256,15.0,24.0,72,0.00,,,-99.99,473.000000,,2013-01-10 20:03:00,
2013-01-10 14:33:00,58.0,47.0,-100.00,WSW,241,11.0,22.0,67,0.00,,,0.11,523.000000,,2013-01-10 20:33:00,
2013-01-10 14:43:00,58.0,47.0,-100.00,WSW,241,11.0,22.0,67,0.00,,,0.11,523.000000,,2013-01-10 20:43:00,
2013-01-10 14:53:00,58.0,47.0,-100.00,WSW,241,11.0,22.0,67,0.00,,,0.11,523.000000,,2013-01-10 20:53:00,
2013-01-10 15:03:00,58.0,47.0,-100.00,WSW,241,11.0,22.0,67,0.00,,,0.11,523.000000,,2013-01-10 21:03:00,
2013-01-10 15:33:00,58.0,45.0,-100.00,SW,236,14.0,23.0,63,0.00,,,0.07,459.000000,,2013-01-10 21:33:00,
2013-01-10 15:43:00,58.0,45.0,-100.00,SW,236,14.0,23.0,63,0.00,,,0.07,459.000000,,2013-01-10 21:43:00,
2013-01-10 15:53:00,58.0,45.0,-100.00,SW,236,14.0,23.0,63,0.00,,,0.07,459.000000,,2013-01-10 21:53:00,
2013-01-10 16:03:00,58.0,45.0,-100.00,SW,236,14.0,23.0,63,0.00,,,0.07,459.000000,,2013-01-10 22:03:00,
2013-01-10 16:34:00,59.0,45.0,-100.00,WSW,239,12.0,21.0,59,0.00,,,0.07,357.000000,,2013-01-10 22:34:00,
2013-01-10 16:44:00,59.0,45.0,-100.00,WSW,239,12.0,21.0,59,0.00,,,0.07,357.000000,,2013-01-10 22:44:00,
2013-01-10 17:02:00,59.0,45.0,-100.00,WSW,239,12.0,21.0,59,0.00,,,0.07,357.000000,,2013-01-10 23:02:00,
2013-01-10 17:33:00,59.0,44.0,-100.00,WSW,237,8.0,16.0,58,0.00,,,0.06,191.000000,,2013-01-10 23:33:00,
2013-01-10 17:43:00,59.0,44.0,-100.00,WSW,237,8.0,16.0,58,0.00,,,0.06,191.000000,,2013-01-10 23:43:00,
2013-01-10 17:53:00,59.0,44.0,-100.00,WSW,237,8.0,16.0,58,0.00,,,0.06,191.000000,,2013-01-10 23:53:00,
2013-01-10 18:03:00,59.0,44.0,-100.00,WSW,237,8.0,16.0,58,0.00,,,0.06,191.000000,,2013-01-11 00:03:00,
2013-01-10 18:33:00,56.0,44.0,-100.00,SW,227,5.0,10.0,64,0.00,,,0.06,34.000000,,2013-01-11 00:33:00,
2013-01-10 18:43:00,56.0,44.0,-100.00,SW,227,5.0,10.0,64,0.00,,,0.06,34.000000,,2013-01-11 00:43:00,
2013-01-10 18:53:00,56.0,44.0,-100.00,SW,227,5.0,10.0,64,0.00,,,0.06,34.000000,,2013-01-11 00:53:00,
2013-01-10 19:03:00,56.0,44.0,-100.00,SW,227,5.0,10.0,64,0.00,,,0.06,34.000000,,2013-01-11 01:03:00,
2013-01-10 19:34:00,53.0,44.0,-100.00,South,174,2.0,6.0,71,0.00,,,-99.99,1.000000,,2013-01-11 01:34:00,
2013-01-10 19:43:00,53.0,44.0,-100.00,South,174,2.0,6.0,71,0.00,,,-99.99,1.000000,,2013-01-11 01:43:00,
2013-01-10 19:53:00,53.0,44.0,-100.00,South,174,2.0,6.0,71,0.00,,,-99.99,1.000000,,2013-01-11 01:53:00,
2013-01-10 20:03:00,53.0,44.0,-100.00,South,174,2.0,6.0,71,0.00,,,-99.99,1.000000,,2013-01-11 02:03:00,
2013-01-10 20:33:00,49.0,43.0,-100.00,SSE,150,4.0,6.0,79,0.00,,,0.05,1.000000,,2013-01-11 02:33:00,
2013-01-10 20:43:00,49.0,43.0,-100.00,SSE,150,4.0,6.0,79,0.00,,,0.05,1.000000,,2013-01-11 02:43:00,
2013-01-10 20:54:00,49.0,43.0,-100.00,SSE,150,4.0,6.0,79,0.00,,,0.05,1.000000,,2013-01-11 02:54:00,
2013-01-10 21:02:00,49.0,43.0,-100.00,SSE,150,4.0,6.0,79,0.00,,,0.05,1.000000,,2013-01-11 03:02:00,
2013-01-10 21:33:00,47.0,40.0,-100.00,SE,141,3.0,8.0,77,0.00,,,0.05,1.000000,,2013-01-11 03:33:00,
2013-01-10 21:43:00,47.0,40.0,-100.00,SE,141,3.0,8.0,77,0.00,,,0.05,1.000000,,2013-01-11 03:43:00,
2013-01-10 21:53:00,47.0,40.0,-100.00,SE,141,3.0,8.0,77,0.00,,,0.05,1.000000,,2013-01-11 03:53:00,
2013-01-10 22:02:00,47.0,40.0,-100.00,SE,141,3.0,8.0,77,0.00,,,0.05,1.000000,,2013-01-11 04:02:00,
2013-01-10 22:33:00,45.0,40.0,-100.00,South,182,3.0,5.0,81,0.00,,,0.05,1.000000,,2013-01-11 04:33:00,
2013-01-10 22:43:00,45.0,40.0,-100.00,South,182,3.0,5.0,81,0.00,,,0.05,1.000000,,2013-01-11 04:43:00,
2013-01-10 22:53:00,45.0,40.0,-100.00,South,182,3.0,5.0,81,0.00,,,0.05,1.000000,,2013-01-11 04:53:00,
2013-01-10 23:03:00,45.0,40.0,-100.00,South,182,3.0,5.0,81,0.00,,,0.05,1.000000,,2013-01-11 05:03:00,
2013-01-10 23:33:00,46.0,40.0,-100.00,SE,144,5.0,9.0,78,0.00,,,-99.99,1.000000,,2013-01-11 05:33:00,
2013-01-10 23:43:00,46.0,40.0,-100.00,SE,144,5.0,9.0,78,0.00,,,-99.99,1.000000,,2013-01-11 05:43:00,
2013-01-10 23:53:00,46.0,40.0,-100.00,SE,144,5.0,9.0,78,0.00,,,-99.99,1.000000,,2013-01-11 05:53:00,